Time;durP1;ratioP1;P1;durP2;ratioP2;P2;SDS_P1;SDS_P2;PMS_P1;PMS_P2;Temp;Humidity;BMP_temperature;BMP_pressure;BME280_temperature;BME280_humidity;BME280_pressure;Samples;Min_cycle;Max_cycle;Signal;HPM_P1;HPM_P2
2020/12/02 00:00:35;;;;;;;33.10;9.20;;;23.80;66.30;;;;;;5110983;28;20040;-58
2020/12/02 00:03:08;;;;;;;40.13;9.70;;;24.00;72.50;;;;;;5110863;28;20026;-60
2020/12/02 00:05:36;;;;;;;40.75;11.18;;;24.10;69.80;;;;;;5103306;28;20366;-61
2020/12/02 00:08:13;;;;;;;35.30;9.00;;;23.90;66.20;;;;;;5073662;28;20076;-60
2020/12/02 00:10:41;;;;;;;37.30;10.02;;;23.90;72.90;;;;;;5091585;28;20425;-61
2020/12/02 00:13:14;;;;;;;40.45;11.02;;;24.00;67.30;;;;;;5091158;28;20378;-60
2020/12/02 00:15:42;;;;;;;43.33;9.90;;;24.00;67.10;;;;;;5090774;28;20118;-59
2020/12/02 00:18:10;;;;;;;38.88;9.43;;;23.90;67.30;;;;;;5090535;28;20107;-61
2020/12/02 00:20:37;;;;;;;39.25;11.73;;;24.00;70.00;;;;;;5090606;28;20128;-60
2020/12/02 00:23:05;;;;;;;46.70;10.35;;;24.00;68.00;;;;;;5091232;28;20024;-59
2020/12/02 00:25:32;;;;;;;42.65;10.25;;;23.70;67.00;;;;;;5090630;28;20024;-61
2020/12/02 00:28:05;;;;;;;61.90;11.82;;;24.00;74.60;;;;;;5110377;28;20020;-59
2020/12/02 00:30:35;;;;;;;40.78;9.88;;;24.20;66.40;;;;;;5110745;28;20096;-58
2020/12/02 00:33:08;;;;;;;42.47;10.52;;;24.10;65.70;;;;;;5111620;28;20062;-61
2020/12/02 00:35:36;;;;;;;41.20;10.45;;;24.40;65.90;;;;;;5110488;28;20485;-61
2020/12/02 00:38:05;;;;;;;36.28;10.43;;;24.60;71.10;;;;;;5111102;28;20046;-60
2020/12/02 00:40:33;;;;;;;39.80;9.18;;;24.60;65.70;;;;;;5111392;28;20020;-62
2020/12/02 00:43:00;;;;;;;45.88;10.98;;;24.70;63.80;;;;;;5113128;28;20028;-59
2020/12/02 00:45:29;;;;;;;39.25;8.82;;;24.70;64.40;;;;;;5114044;28;20051;-58
2020/12/02 00:47:57;;;;;;;30.35;9.20;;;24.80;65.90;;;;;;5114098;28;20046;-61
2020/12/02 00:50:25;;;;;;;36.13;10.38;;;24.80;71.60;;;;;;5114872;28;20026;-59
2020/12/02 00:53:02;;;;;;;32.92;8.82;;;24.90;71.30;;;;;;5114656;28;20470;-59
2020/12/02 00:55:30;;;;;;;31.95;9.05;;;25.10;70.50;;;;;;5115293;28;20039;-62
2020/12/02 00:57:58;;;;;;;37.17;9.63;;;25.20;70.30;;;;;;5113752;28;20026;-57
2020/12/02 01:00:29;;;;;;;30.48;8.95;;;25.20;69.40;;;;;;5113915;28;20036;-57
2020/12/02 01:03:19;;;;;;;38.75;10.27;;;25.30;70.90;;;;;;5096559;28;20156;-60
2020/12/02 01:05:47;;;;;;;39.05;9.65;;;25.40;68.20;;;;;;5118288;27;20042;-62
2020/12/02 01:08:42;;;;;;;45.40;11.13;;;25.40;67.40;;;;;;5130998;27;20050;-56
2020/12/02 01:11:19;;;;;;;36.65;9.57;;;25.30;63.90;;;;;;5133855;27;20043;-60
2020/12/02 01:13:47;;;;;;;55.47;9.98;;;25.20;63.30;;;;;;5113031;27;20042;-62
2020/12/02 01:16:23;;;;;;;44.25;9.63;;;25.20;61.40;;;;;;5113124;28;20030;-63
2020/12/02 01:18:50;;;;;;;34.17;7.95;;;25.10;64.70;;;;;;5111207;28;20051;-56
2020/12/02 01:21:49;;;;;;;34.35;9.48;;;24.80;61.70;;;;;;5112625;28;20023;-62
2020/12/02 01:24:24;;;;;;;33.83;8.38;;;24.90;62.50;;;;;;5107062;27;20032;-58
2020/12/02 01:27:14;;;;;;;40.78;9.05;;;24.90;61.80;;;;;;5109462;28;20034;-60
2020/12/02 01:29:42;;;;;;;31.40;8.48;;;24.90;66.50;;;;;;5110210;28;20039;-61
2020/12/02 01:32:11;;;;;;;43.58;8.27;;;24.80;64.80;;;;;;5111899;28;20059;-62
2020/12/02 01:34:38;;;;;;;37.33;9.00;;;24.90;65.80;;;;;;5111143;28;20054;-62
2020/12/02 01:37:28;;;;;;;50.10;10.35;;;24.80;62.50;;;;;;5112157;28;20019;-58
2020/12/02 01:40:13;;;;;;;58.33;10.98;;;24.70;62.40;;;;;;5113477;28;20132;-61
2020/12/02 01:43:00;;;;;;;48.30;9.32;;;24.70;62.80;;;;;;5113838;28;20409;-60
2020/12/02 01:45:43;;;;;;;44.05;8.93;;;24.70;66.50;;;;;;5093560;28;20039;-58
2020/12/02 01:48:29;;;;;;;41.75;10.02;;;24.50;66.30;;;;;;5092809;28;20108;-60
2020/12/02 01:51:25;;;;;;;41.78;10.07;;;24.70;64.60;;;;;;5112366;28;20028;-61
2020/12/02 01:54:01;;;;;;;45.90;9.57;;;24.40;71.60;;;;;;5113196;28;20477;-58
2020/12/02 01:56:56;;;;;;;42.75;10.10;;;24.20;72.50;;;;;;5113657;28;20048;-57
2020/12/02 01:59:40;;;;;;;36.08;9.20;;;24.20;68.30;;;;;;5112991;28;20053;-60
2020/12/02 02:02:28;;;;;;;49.47;9.55;;;24.30;68.70;;;;;;5113879;28;20115;-61
2020/12/02 02:05:05;;;;;;;42.03;9.77;;;24.40;66.20;;;;;;5113795;28;20031;-60
2020/12/02 02:07:34;;;;;;;41.03;10.07;;;24.30;65.10;;;;;;5113239;28;20102;-61
2020/12/02 02:10:12;;;;;;;44.53;9.85;;;24.20;65.10;;;;;;5112466;28;20503;-58
2020/12/02 02:12:57;;;;;;;24.42;7.28;;;24.60;65.10;;;;;;5109839;28;20028;-58
2020/12/02 02:15:34;;;;;;;31.10;9.15;;;24.80;63.60;;;;;;5113299;28;20030;-61
2020/12/02 02:18:12;;;;;;;32.08;8.57;;;24.70;68.00;;;;;;5092464;28;20047;-61
2020/12/02 02:20:44;;;;;;;39.08;10.00;;;25.00;66.90;;;;;;5100180;27;20040;-60
2020/12/02 02:23:17;;;;;;;43.40;9.85;;;24.60;64.00;;;;;;5108635;28;20027;-59
2020/12/02 02:26:00;;;;;;;37.22;8.40;;;24.80;66.20;;;;;;5092455;28;20047;-54
2020/12/02 02:28:29;;;;;;;32.50;7.00;;;24.80;64.60;;;;;;5108123;28;20050;-53
2020/12/02 02:30:57;;;;;;;29.80;7.22;;;24.90;69.00;;;;;;5106814;28;20058;-58
2020/12/02 02:33:27;;;;;;;22.23;6.57;;;25.00;68.40;;;;;;5109477;28;20034;-56
2020/12/02 02:35:54;;;;;;;30.08;7.13;;;25.20;68.50;;;;;;5108785;28;20031;-59
2020/12/02 02:38:23;;;;;;;25.63;7.60;;;25.20;68.50;;;;;;5110172;28;20039;-50
2020/12/02 02:40:50;;;;;;;24.48;6.40;;;25.30;68.30;;;;;;5105034;28;20108;-52
2020/12/02 02:43:18;;;;;;;24.15;6.40;;;25.30;68.30;;;;;;5107455;28;20026;-55
2020/12/02 02:45:45;;;;;;;23.98;6.95;;;25.40;68.40;;;;;;5108733;28;20431;-54
2020/12/02 02:48:13;;;;;;;19.65;6.57;;;25.40;68.30;;;;;;5110266;28;20027;-59
2020/12/02 02:50:40;;;;;;;26.33;7.95;;;25.40;68.30;;;;;;5106696;28;20034;-57
2020/12/02 02:53:17;;;;;;;24.80;6.93;;;25.40;68.20;;;;;;5109894;28;20027;-53
2020/12/02 02:55:49;;;;;;;22.67;6.95;;;25.40;68.10;;;;;;5108772;28;20047;-57
2020/12/02 02:58:17;;;;;;;23.50;6.85;;;25.40;68.20;;;;;;5109468;28;20104;-58
2020/12/02 03:00:45;;;;;;;22.35;6.95;;;25.40;68.00;;;;;;5105993;28;21225;-57
2020/12/02 03:03:15;;;;;;;23.88;6.22;;;25.40;68.20;;;;;;5091275;28;20493;-58
2020/12/02 03:05:43;;;;;;;24.92;8.05;;;25.40;66.80;;;;;;5107940;28;20473;-56
2020/12/02 03:08:12;;;;;;;22.83;6.35;;;25.40;67.20;;;;;;5108320;28;20095;-57
2020/12/02 03:10:41;;;;;;;25.38;7.18;;;25.40;67.30;;;;;;5104638;28;20024;-57
2020/12/02 03:13:45;;;;;;;23.55;7.22;;;25.40;67.30;;;;;;5109155;28;20110;-52
2020/12/02 03:16:26;;;;;;;26.73;6.68;;;25.40;67.60;;;;;;5083259;28;20110;-61
2020/12/02 03:18:58;;;;;;;22.95;6.45;;;25.40;68.10;;;;;;5106232;28;20561;-62
2020/12/02 03:21:25;;;;;;;;;;;25.30;67.90;;;;;;5086623;28;20398;-65
2020/12/02 03:23:52;;;;;;;22.70;6.82;;;25.40;68.40;;;;;;5109096;28;19935;-63
2020/12/02 03:26:20;;;;;;;20.17;6.30;;;25.40;68.60;;;;;;5108403;28;20059;-62
2020/12/02 03:28:48;;;;;;;20.15;6.70;;;25.40;68.80;;;;;;5108311;28;20035;-56
2020/12/02 03:31:19;;;;;;;28.35;7.10;;;25.40;68.80;;;;;;5105313;28;20466;-55
2020/12/02 03:33:47;;;;;;;30.47;7.37;;;25.30;68.70;;;;;;5109953;28;20027;-60
2020/12/02 03:36:17;;;;;;;17.30;6.82;;;25.40;68.90;;;;;;5108601;28;20079;-58
2020/12/02 03:38:45;;;;;;;23.35;6.45;;;25.40;69.00;;;;;;5108824;28;20119;-64
2020/12/02 03:41:14;;;;;;;20.77;5.70;;;25.30;68.80;;;;;;5111684;28;20067;-62
2020/12/02 03:43:43;;;;;;;20.17;5.72;;;25.40;68.90;;;;;;5110909;28;20549;-61
2020/12/02 03:46:10;;;;;;;20.90;6.60;;;25.40;68.70;;;;;;5109583;28;20030;-61
2020/12/02 03:48:37;;;;;;;21.25;6.10;;;25.30;68.70;;;;;;5109552;28;20103;-59
2020/12/02 03:51:05;;;;;;;17.50;5.72;;;25.30;68.70;;;;;;5110008;28;20031;-62
2020/12/02 03:53:33;;;;;;;21.05;5.65;;;25.30;68.80;;;;;;5109917;28;20012;-63
2020/12/02 03:56:01;;;;;;;16.80;6.18;;;25.30;68.90;;;;;;5109657;28;20107;-59
2020/12/02 03:58:29;;;;;;;19.92;6.35;;;25.30;68.90;;;;;;5111480;28;20457;-63
2020/12/02 04:00:56;;;;;;;19.98;6.07;;;25.30;68.80;;;;;;5111714;28;20050;-61
2020/12/02 04:03:24;;;;;;;24.25;6.20;;;25.30;68.90;;;;;;5112174;28;20526;-63
2020/12/02 04:05:51;;;;;;;16.50;5.53;;;25.20;68.80;;;;;;5111147;28;20024;-57
2020/12/02 04:08:18;;;;;;;20.65;6.50;;;25.20;68.70;;;;;;5111740;28;20016;-64
2020/12/02 04:10:46;;;;;;;15.55;5.03;;;25.20;68.50;;;;;;5111680;28;20027;-64
2020/12/02 04:13:13;;;;;;;23.33;6.38;;;25.20;68.70;;;;;;5111816;28;20020;-61
2020/12/02 04:15:41;;;;;;;19.40;5.57;;;25.20;69.00;;;;;;5111907;28;20031;-64
2020/12/02 04:18:08;;;;;;;21.23;6.20;;;25.20;68.90;;;;;;5115410;28;20051;-61
2020/12/02 04:20:35;;;;;;;15.48;5.60;;;25.20;69.00;;;;;;5115449;28;20118;-55
2020/12/02 04:23:03;;;;;;;23.65;6.47;;;25.20;69.10;;;;;;5115803;28;20034;-61
2020/12/02 04:25:30;;;;;;;22.30;6.20;;;25.20;67.50;;;;;;5103082;27;20027;-52
2020/12/02 04:27:57;;;;;;;34.67;7.57;;;25.10;66.20;;;;;;5111279;28;20070;-53
2020/12/02 04:30:25;;;;;;;24.65;6.47;;;25.20;66.00;;;;;;5111895;27;20023;-58
2020/12/02 04:32:52;;;;;;;21.70;7.40;;;25.20;66.20;;;;;;5111918;28;20035;-53
2020/12/02 04:35:20;;;;;;;24.83;7.32;;;25.20;65.90;;;;;;5108650;28;20016;-58
2020/12/02 04:37:47;;;;;;;21.42;5.65;;;25.20;66.20;;;;;;5111961;28;20119;-53
2020/12/02 04:40:34;;;;;;;21.77;6.25;;;25.20;66.40;;;;;;5111365;28;20063;-56
2020/12/02 04:43:17;;;;;;;21.05;6.53;;;25.20;66.40;;;;;;5110816;27;20167;-58
2020/12/02 04:45:45;;;;;;;24.13;6.82;;;25.00;66.30;;;;;;5107611;28;20024;-58
2020/12/02 04:48:23;;;;;;;21.88;6.80;;;24.80;67.70;;;;;;5111135;28;20111;-60
2020/12/02 04:50:50;;;;;;;29.38;6.82;;;24.80;67.70;;;;;;5109434;28;20392;-60
2020/12/02 04:53:24;;;;;;;23.75;6.10;;;24.90;64.30;;;;;;5111655;28;20023;-59
2020/12/02 04:55:55;;;;;;;25.27;7.32;;;24.70;68.20;;;;;;5104909;28;20092;-57
2020/12/02 04:58:32;;;;;;;19.38;5.55;;;24.90;64.10;;;;;;5110671;28;20502;-62
2020/12/02 05:01:23;;;;;;;23.25;6.32;;;24.80;66.80;;;;;;5111383;28;20054;-57
2020/12/02 05:03:57;;;;;;;25.55;6.97;;;24.80;63.40;;;;;;5110533;28;20145;-62
2020/12/02 05:06:43;;;;;;;30.90;7.00;;;24.70;62.70;;;;;;5107625;28;20358;-60
2020/12/02 05:09:26;;;;;;;26.90;6.82;;;24.50;65.00;;;;;;5111613;28;20156;-56
2020/12/02 05:12:01;;;;;;;23.00;6.57;;;24.50;67.60;;;;;;5108151;28;20024;-56
2020/12/02 05:14:41;;;;;;;26.25;6.47;;;24.60;68.50;;;;;;5111685;28;20012;-60
2020/12/02 05:17:29;;;;;;;25.58;6.28;;;24.70;64.70;;;;;;5108652;28;20355;-53
2020/12/02 05:20:09;;;;;;;22.77;7.30;;;24.50;66.70;;;;;;5112179;28;20424;-59
2020/12/02 05:22:40;;;;;;;36.65;7.55;;;24.30;64.50;;;;;;5114090;28;20098;-57
2020/12/02 05:25:19;;;;;;;28.25;7.90;;;23.90;64.60;;;;;;5113237;28;20059;-57
2020/12/02 05:27:51;;;;;;;27.73;8.55;;;24.10;69.20;;;;;;5112920;28;20110;-57
2020/12/02 05:30:25;;;;;;;30.55;8.27;;;24.40;68.70;;;;;;5114170;28;20496;-52
2020/12/02 05:33:11;;;;;;;32.15;9.32;;;24.50;66.60;;;;;;5112838;28;20416;-52
2020/12/02 05:35:48;;;;;;;27.40;9.85;;;24.60;68.40;;;;;;5113542;28;20051;-59
2020/12/02 05:38:32;;;;;;;33.22;8.88;;;24.70;68.40;;;;;;5112559;28;20435;-58
2020/12/02 05:41:01;;;;;;;22.75;10.63;;;24.60;67.00;;;;;;5113088;28;20023;-60
2020/12/02 05:43:38;;;;;;;30.05;15.73;;;24.70;68.20;;;;;;5113828;28;20469;-61
2020/12/02 05:46:10;;;;;;;32.13;16.00;;;24.80;67.40;;;;;;5113863;28;20031;-58
2020/12/02 05:48:42;;;;;;;32.28;13.38;;;24.80;66.90;;;;;;5079756;28;20023;-60
2020/12/02 05:51:21;;;;;;;33.03;14.10;;;24.80;66.80;;;;;;5110024;28;20497;-61
2020/12/02 05:54:04;;;;;;;23.35;10.73;;;24.80;66.50;;;;;;5113799;28;20039;-58
2020/12/02 05:56:32;;;;;;;25.95;9.88;;;24.90;66.60;;;;;;5095695;28;20020;-53
2020/12/02 05:59:01;;;;;;;28.00;12.82;;;24.90;66.20;;;;;;5113896;28;20039;-55
2020/12/02 06:01:29;;;;;;;26.67;17.33;;;24.90;65.80;;;;;;5113889;28;20035;-58
2020/12/02 06:04:04;;;;;;;31.35;11.32;;;24.90;66.10;;;;;;5113255;28;20027;-58
2020/12/02 06:06:32;;;;;;;25.80;10.38;;;24.90;65.70;;;;;;5113860;28;20054;-67
2020/12/02 06:09:00;;;;;;;31.85;9.80;;;24.90;66.00;;;;;;5112857;28;20412;-64
2020/12/02 06:11:36;;;;;;;30.10;8.57;;;24.90;66.10;;;;;;5112337;28;20039;-62
2020/12/02 06:14:05;;;;;;;25.83;7.95;;;25.00;66.20;;;;;;5106785;28;20389;-65
2020/12/02 06:16:33;;;;;;;25.02;7.00;;;25.00;66.80;;;;;;5113655;28;20210;-56
2020/12/02 06:19:12;;;;;;;25.80;6.88;;;25.00;66.60;;;;;;5113385;28;20051;-59
2020/12/02 06:21:49;;;;;;;29.13;7.78;;;25.10;67.20;;;;;;5113215;28;20385;-53
2020/12/02 06:24:44;;;;;;;32.67;6.85;;;25.10;67.10;;;;;;5113748;28;20533;-56
2020/12/02 06:27:17;;;;;;;34.03;9.43;;;25.10;67.80;;;;;;5111304;28;20088;-60
2020/12/02 06:29:52;;;;;;;25.35;7.30;;;25.10;67.30;;;;;;5113436;28;20024;-65
2020/12/02 06:32:22;;;;;;;29.80;6.18;;;25.10;67.50;;;;;;5113307;28;20030;-65
2020/12/02 06:34:51;;;;;;;28.80;7.25;;;25.10;68.10;;;;;;5113362;28;20385;-64
2020/12/02 06:37:28;;;;;;;30.50;7.22;;;25.10;68.20;;;;;;5112442;28;20027;-64
2020/12/02 06:40:00;;;;;;;25.15;7.03;;;25.20;68.00;;;;;;5111289;28;20119;-66
2020/12/02 06:42:37;;;;;;;;;;;25.10;67.90;;;;;;5113224;28;20037;-67
2020/12/02 06:45:34;;;;;;;27.80;7.80;;;25.10;68.20;;;;;;5112289;28;20296;-64
2020/12/02 06:48:29;;;;;;;24.08;7.38;;;25.10;69.10;;;;;;5085587;28;20024;-60
2020/12/02 06:51:01;;;;;;;35.22;6.80;;;25.20;68.50;;;;;;5093714;28;20024;-67
2020/12/02 06:53:29;;;;;;;22.63;6.22;;;25.20;68.70;;;;;;5112464;28;20481;-58
2020/12/02 06:56:01;;;;;;;27.10;6.90;;;25.20;68.20;;;;;;5111543;28;20081;-62
2020/12/02 06:58:29;;;;;;;28.10;6.88;;;25.20;68.70;;;;;;5112018;28;20073;-65
2020/12/02 07:01:00;;;;;;;32.92;7.63;;;25.20;68.70;;;;;;5112024;28;20481;-55
2020/12/02 07:03:35;;;;;;;34.28;7.40;;;25.20;69.30;;;;;;5112036;28;20023;-61
2020/12/02 07:06:27;;;;;;;39.20;7.07;;;25.30;69.30;;;;;;5112432;28;20122;-60
2020/12/02 07:09:10;;;;;;;27.98;5.90;;;25.20;68.50;;;;;;5112562;28;20030;-65
2020/12/02 07:11:41;;;;;;;22.35;6.25;;;25.20;67.80;;;;;;5093584;28;20061;-54
2020/12/02 07:14:23;;;;;;;18.63;5.63;;;25.10;67.00;;;;;;5112550;28;20374;-62
2020/12/02 07:16:58;;;;;;;28.20;6.10;;;25.10;66.60;;;;;;5111912;28;20023;-62
2020/12/02 07:19:30;;;;;;;20.92;6.10;;;25.00;66.30;;;;;;5112440;28;20070;-63
2020/12/02 07:22:02;;;;;;;;;;;24.90;66.10;;;;;;5094242;28;20120;-67
2020/12/02 07:24:33;;;;;;;20.05;6.03;;;24.90;66.10;;;;;;5110816;28;19915;-66
2020/12/02 07:27:00;;;;;;;;;;;24.80;65.90;;;;;;5112888;28;20050;-68
2020/12/02 07:29:29;;;;;;;30.73;6.70;;;24.80;65.50;;;;;;5112551;28;20349;-64
2020/12/02 07:32:06;;;;;;;18.25;5.90;;;24.80;65.90;;;;;;5111622;28;20016;-67
2020/12/02 07:34:34;;;;;;;23.30;6.15;;;24.70;65.80;;;;;;5099443;28;20054;-54
2020/12/02 07:37:10;;;;;;;19.45;5.15;;;24.70;65.90;;;;;;5108760;28;20020;-55
2020/12/02 07:39:49;;;;;;;21.35;6.05;;;24.70;65.80;;;;;;5109013;28;20102;-49
2020/12/02 07:42:34;;;;;;;22.65;6.18;;;24.70;66.10;;;;;;5108862;28;20027;-54
2020/12/02 07:45:26;;;;;;;32.13;6.00;;;24.70;66.30;;;;;;5103169;28;20036;-54
2020/12/02 07:48:08;;;;;;;27.20;6.30;;;24.70;66.20;;;;;;5106635;28;20026;-50
2020/12/02 07:50:47;;;;;;;20.27;5.57;;;24.70;66.90;;;;;;5108744;28;21389;-57
2020/12/02 07:53:34;;;;;;;21.25;5.95;;;24.70;67.30;;;;;;5113613;27;20051;-55
2020/12/02 07:56:04;;;;;;;24.02;5.55;;;24.70;67.40;;;;;;5114893;28;20028;-60
2020/12/02 07:58:34;;;;;;;20.30;5.72;;;24.70;67.40;;;;;;5114528;28;20031;-59
2020/12/02 08:01:27;;;;;;;17.60;5.53;;;24.60;68.10;;;;;;5114724;28;20028;-63
2020/12/02 08:03:54;;;;;;;18.27;5.10;;;24.60;67.60;;;;;;5107124;28;20463;-59
2020/12/02 08:06:47;;;;;;;20.55;5.75;;;24.60;68.20;;;;;;5115879;28;20099;-54
2020/12/02 08:09:14;;;;;;;24.00;6.40;;;24.60;68.40;;;;;;5097432;28;20039;-54
2020/12/02 08:12:02;;;;;;;17.42;5.15;;;24.60;68.70;;;;;;5115690;28;20449;-65
2020/12/02 08:14:33;;;;;;;21.90;5.45;;;24.60;69.10;;;;;;5098115;28;20501;-63
2020/12/02 08:17:12;;;;;;;24.08;8.20;;;24.60;69.00;;;;;;5115594;28;20035;-63
2020/12/02 08:19:43;;;;;;;29.50;7.97;;;24.50;69.40;;;;;;5116591;28;20046;-55
2020/12/02 08:22:35;;;;;;;20.35;7.50;;;24.50;70.20;;;;;;5098163;28;20031;-60
2020/12/02 08:25:33;;;;;;;21.67;7.18;;;24.50;70.80;;;;;;5116326;28;20458;-58
2020/12/02 08:28:14;;;;;;;26.42;8.57;;;24.60;69.70;;;;;;5116033;28;20019;-58
2020/12/02 08:30:42;;;;;;;21.90;7.50;;;24.50;70.40;;;;;;5116064;28;20100;-60
2020/12/02 08:33:15;;;;;;;20.63;6.68;;;24.50;69.70;;;;;;5115343;28;20055;-60
2020/12/02 08:35:44;;;;;;;28.10;7.13;;;24.50;69.40;;;;;;5112545;28;20054;-61
2020/12/02 08:38:26;;;;;;;21.35;7.32;;;24.50;69.10;;;;;;5111933;28;20378;-59
2020/12/02 08:40:56;;;;;;;26.83;7.18;;;24.40;68.90;;;;;;5112830;28;20488;-58
2020/12/02 08:43:31;;;;;;;33.67;7.30;;;24.40;68.90;;;;;;5112970;28;20027;-62
2020/12/02 08:45:58;;;;;;;32.97;7.38;;;24.40;68.60;;;;;;5112992;28;20334;-58
2020/12/02 08:48:25;;;;;;;27.73;8.00;;;24.40;69.40;;;;;;5112881;28;20030;-59
2020/12/02 08:50:52;;;;;;;28.30;6.82;;;24.30;69.30;;;;;;5114408;28;20039;-58
2020/12/02 08:53:30;;;;;;;39.33;8.40;;;24.30;69.60;;;;;;5115171;28;20042;-61
2020/12/02 08:55:58;;;;;;;37.80;8.02;;;24.30;70.60;;;;;;5114773;28;20035;-60
2020/12/02 08:58:26;;;;;;;28.63;6.80;;;24.30;71.60;;;;;;5115325;28;20546;-61
2020/12/02 09:00:53;;;;;;;26.38;6.95;;;24.40;71.40;;;;;;5115147;28;20027;-60
2020/12/02 09:03:24;;;;;;;28.65;6.05;;;24.30;71.40;;;;;;5114163;28;20488;-60
2020/12/02 09:05:52;;;;;;;26.65;6.90;;;24.20;69.50;;;;;;5115108;28;20023;-60
2020/12/02 09:08:20;;;;;;;26.67;7.18;;;24.30;72.70;;;;;;5102341;28;20019;-54
2020/12/02 09:10:48;;;;;;;20.20;5.55;;;24.30;72.50;;;;;;5091166;28;20020;-57
2020/12/02 09:13:15;;;;;;;23.50;5.90;;;24.30;71.80;;;;;;5107816;28;20051;-62
2020/12/02 09:15:42;;;;;;;21.10;5.82;;;24.40;71.10;;;;;;5110983;28;20027;-58
2020/12/02 09:18:10;;;;;;;24.50;6.40;;;24.30;71.60;;;;;;5108827;28;20047;-61
2020/12/02 09:20:37;;;;;;;26.90;6.80;;;24.30;72.30;;;;;;5105477;28;20485;-58
2020/12/02 09:23:04;;;;;;;19.92;6.03;;;24.30;71.30;;;;;;5108634;28;20213;-61
2020/12/02 09:25:32;;;;;;;25.88;6.88;;;24.30;71.20;;;;;;5110126;28;20027;-53
2020/12/02 09:27:59;;;;;;;29.63;6.50;;;24.30;71.30;;;;;;5109014;28;20027;-56
2020/12/02 09:30:26;;;;;;;22.15;6.40;;;24.30;71.90;;;;;;5085861;28;20031;-63
2020/12/02 09:32:54;;;;;;;23.92;6.20;;;24.30;71.00;;;;;;5111382;28;20032;-57
2020/12/02 09:35:23;;;;;;;25.40;5.95;;;24.30;71.30;;;;;;5107919;28;20084;-63
2020/12/02 09:37:50;;;;;;;45.53;6.50;;;24.30;70.90;;;;;;5108142;28;20108;-59
2020/12/02 09:40:18;;;;;;;20.10;5.88;;;24.30;71.50;;;;;;5071720;28;20031;-57
2020/12/02 09:43:01;;;;;;;33.40;6.80;;;24.30;70.00;;;;;;5108628;28;20100;-57
2020/12/02 09:45:29;;;;;;;27.25;6.25;;;24.20;69.60;;;;;;5110146;28;20595;-61
2020/12/02 09:47:57;;;;;;;32.45;6.72;;;24.20;69.10;;;;;;5107363;28;20068;-61
2020/12/02 09:50:26;;;;;;;24.77;5.82;;;24.20;68.60;;;;;;5107853;28;20105;-54
2020/12/02 09:52:53;;;;;;;20.48;5.45;;;24.10;68.20;;;;;;5110501;28;20211;-51
2020/12/02 09:55:25;;;;;;;21.50;4.80;;;24.10;67.70;;;;;;5110215;28;20112;-59
2020/12/02 09:57:54;;;;;;;27.85;6.05;;;24.10;68.10;;;;;;5108805;28;20393;-60
2020/12/02 10:00:23;;;;;;;26.90;6.07;;;24.10;68.20;;;;;;5107012;28;20151;-56
2020/12/02 10:03:19;;;;;;;19.88;5.50;;;24.10;67.90;;;;;;5109550;27;20027;-58
2020/12/02 10:06:07;;;;;;;24.13;5.07;;;24.20;68.00;;;;;;5109735;28;20058;-61
2020/12/02 10:09:10;;;;;;;20.30;4.93;;;24.10;67.70;;;;;;5107536;28;20114;-56
2020/12/02 10:12:00;;;;;;;15.75;5.65;;;24.10;67.60;;;;;;5108649;28;20016;-55
2020/12/02 10:14:53;;;;;;;16.90;4.60;;;24.10;67.50;;;;;;5110146;28;20035;-55
2020/12/02 10:17:51;;;;;;;18.13;5.25;;;24.10;67.40;;;;;;5110833;28;20040;-57
2020/12/02 10:20:29;;;;;;;18.80;4.65;;;24.10;67.40;;;;;;5106589;28;20092;-61
2020/12/02 10:23:17;;;;;;;19.88;4.97;;;24.10;67.40;;;;;;5111531;28;20384;-62
2020/12/02 10:26:16;;;;;;;19.55;5.07;;;24.10;67.30;;;;;;5090733;28;20052;-58
2020/12/02 10:29:01;;;;;;;13.77;4.60;;;24.10;67.20;;;;;;5107166;28;21416;-61
2020/12/02 10:31:41;;;;;;;14.75;4.63;;;24.10;67.20;;;;;;5106973;28;20023;-59
2020/12/02 10:34:14;;;;;;;13.50;4.78;;;24.00;67.20;;;;;;5107994;28;20456;-60
2020/12/02 10:36:51;;;;;;;15.77;5.15;;;24.00;67.30;;;;;;5109775;28;20022;-59
2020/12/02 10:39:28;;;;;;;15.02;4.53;;;24.00;67.30;;;;;;5105836;28;20054;-63
2020/12/02 10:42:25;;;;;;;14.93;4.38;;;24.00;67.10;;;;;;5106424;28;20019;-56
2020/12/02 10:45:15;;;;;;;14.65;4.78;;;23.90;67.10;;;;;;5110098;28;20027;-52
2020/12/02 10:47:59;;;;;;;14.98;4.85;;;23.90;67.20;;;;;;5109504;28;20031;-56
2020/12/02 10:50:31;;;;;;;20.08;4.68;;;23.90;67.20;;;;;;5107010;28;20035;-59
2020/12/02 10:53:00;;;;;;;17.13;4.65;;;23.90;67.20;;;;;;5093050;28;20011;-56
2020/12/02 10:55:32;;;;;;;17.73;5.07;;;23.90;67.30;;;;;;5109871;28;20131;-59
2020/12/02 10:58:21;;;;;;;14.90;4.22;;;23.90;67.30;;;;;;5106704;28;20483;-57
2020/12/02 11:00:52;;;;;;;18.77;4.55;;;23.90;67.30;;;;;;5104584;28;20450;-53
2020/12/02 11:03:38;;;;;;;14.77;4.30;;;23.80;67.30;;;;;;5109609;28;20473;-56
2020/12/02 11:06:23;;;;;;;18.95;4.80;;;23.90;67.20;;;;;;5108079;28;20492;-52
2020/12/02 11:08:59;;;;;;;15.60;4.63;;;23.80;67.20;;;;;;5106883;28;20478;-54
2020/12/02 11:11:53;;;;;;;12.70;4.65;;;23.80;67.20;;;;;;5107902;28;20027;-54
2020/12/02 11:14:53;;;;;;;16.85;5.05;;;23.80;67.30;;;;;;5108493;28;20036;-62
2020/12/02 11:17:36;;;;;;;14.73;4.78;;;23.80;67.30;;;;;;5108529;28;20548;-56
2020/12/02 11:20:26;;;;;;;13.77;4.38;;;23.80;67.30;;;;;;5104993;28;20028;-63
2020/12/02 11:22:56;;;;;;;13.35;4.38;;;23.80;67.30;;;;;;5109111;28;20028;-62
2020/12/02 11:26:00;;;;;;;15.68;4.72;;;23.80;67.30;;;;;;5088910;28;20031;-57
2020/12/02 11:28:27;;;;;;;14.55;4.22;;;23.70;67.20;;;;;;5090660;28;20039;-56
2020/12/02 11:31:07;;;;;;;13.32;3.83;;;23.70;67.30;;;;;;5104882;28;20031;-52
2020/12/02 11:33:51;;;;;;;13.05;4.13;;;23.70;67.30;;;;;;5106992;28;20118;-50
2020/12/02 11:36:18;;;;;;;11.25;4.10;;;23.70;67.30;;;;;;5108932;28;20050;-50
2020/12/02 11:39:17;;;;;;;15.90;4.85;;;23.70;67.40;;;;;;5107556;28;20031;-61
2020/12/02 11:41:44;;;;;;;12.57;4.03;;;23.70;67.40;;;;;;5107869;28;20036;-59
2020/12/02 11:44:45;;;;;;;11.05;3.80;;;23.60;67.40;;;;;;5109177;28;20107;-56
2020/12/02 11:47:37;;;;;;;14.32;4.75;;;23.60;67.40;;;;;;5109573;28;20088;-55
2020/12/02 11:50:30;;;;;;;14.35;4.47;;;23.60;67.50;;;;;;5105378;28;20535;-54
2020/12/02 11:53:00;;;;;;;12.75;3.53;;;23.60;67.50;;;;;;5108491;28;20385;-56
2020/12/02 11:55:27;;;;;;;14.30;4.18;;;23.60;67.60;;;;;;5107213;28;20511;-60
2020/12/02 11:57:57;;;;;;;17.35;4.75;;;23.50;67.60;;;;;;5108377;28;20034;-54
2020/12/02 12:00:24;;;;;;;11.80;3.95;;;23.50;67.60;;;;;;5105206;28;20043;-59
2020/12/02 12:03:11;;;;;;;9.38;3.55;;;23.50;67.60;;;;;;5110239;28;20027;-59
2020/12/02 12:05:47;;;;;;;12.05;3.92;;;23.50;67.60;;;;;;5105956;28;20024;-54
2020/12/02 12:08:42;;;;;;;14.75;4.82;;;23.50;67.60;;;;;;5107733;28;20028;-53
2020/12/02 12:11:22;;;;;;;13.15;4.88;;;23.50;67.60;;;;;;5107566;28;20024;-60
2020/12/02 12:14:01;;;;;;;12.50;4.38;;;23.50;67.60;;;;;;5107801;28;20382;-65
2020/12/02 12:16:41;;;;;;;13.30;4.28;;;23.50;67.70;;;;;;5109110;28;20027;-63
2020/12/02 12:19:26;;;;;;;12.00;4.25;;;23.50;67.60;;;;;;5104758;28;20062;-59
2020/12/02 12:22:09;;;;;;;14.98;4.55;;;23.40;67.80;;;;;;5108611;28;20024;-62
2020/12/02 12:24:36;;;;;;;12.73;3.72;;;23.40;68.00;;;;;;5111228;28;20027;-61
2020/12/02 12:27:04;;;;;;;11.27;3.85;;;23.40;67.90;;;;;;5110656;28;20034;-62
2020/12/02 12:29:31;;;;;;;10.93;3.92;;;23.40;67.80;;;;;;5111458;28;20032;-60
2020/12/02 12:32:21;;;;;;;12.07;3.80;;;23.40;67.80;;;;;;5111519;28;20052;-59
2020/12/02 12:35:18;;;;;;;13.40;4.30;;;23.40;67.90;;;;;;5111694;28;20104;-60
2020/12/02 12:38:02;;;;;;;15.05;4.32;;;23.30;67.90;;;;;;5072793;28;20510;-61
2020/12/02 12:40:47;;;;;;;11.18;3.80;;;23.30;67.90;;;;;;5115932;28;20118;-60
2020/12/02 12:43:19;;;;;;;12.70;4.82;;;23.30;68.00;;;;;;5116046;28;20020;-61
2020/12/02 12:45:52;;;;;;;13.50;4.15;;;23.20;68.00;;;;;;5109798;27;20094;-61
2020/12/02 12:48:23;;;;;;;12.70;4.22;;;23.20;68.00;;;;;;5113281;27;20035;-63
2020/12/02 12:50:52;;;;;;;13.55;4.40;;;23.20;68.10;;;;;;5111553;28;20028;-56
2020/12/02 12:53:22;;;;;;;13.23;4.55;;;23.20;68.20;;;;;;5111914;27;20023;-59
2020/12/02 12:55:53;;;;;;;12.82;4.43;;;23.20;68.40;;;;;;5111814;28;20511;-60
2020/12/02 12:58:21;;;;;;;14.10;4.75;;;23.20;68.50;;;;;;5093669;28;20031;-58
2020/12/02 13:00:52;;;;;;;12.15;4.22;;;23.20;68.60;;;;;;5093222;28;20036;-58
2020/12/02 13:03:27;;;;;;;13.88;4.28;;;23.10;68.60;;;;;;5108329;28;20028;-60
2020/12/02 13:06:00;;;;;;;13.93;4.30;;;23.10;68.80;;;;;;5112567;27;20035;-58
2020/12/02 13:08:47;;;;;;;13.50;4.50;;;23.10;69.00;;;;;;5109968;28;20515;-59
2020/12/02 13:12:01;;;;;;;15.85;4.35;;;23.10;69.00;;;;;;5111007;28;20035;-59
2020/12/02 13:14:41;;;;;;;13.60;4.15;;;23.00;69.10;;;;;;5090019;28;20035;-55
2020/12/02 13:17:32;;;;;;;12.02;4.13;;;23.00;69.10;;;;;;5109792;28;20043;-60
2020/12/02 13:20:14;;;;;;;14.50;4.75;;;23.00;69.20;;;;;;5111264;28;20035;-60